Time;durP1;ratioP1;P1;durP2;ratioP2;P2;SDS_P1;SDS_P2;PMS_P1;PMS_P2;Temp;Humidity;BMP_temperature;BMP_pressure;BME280_temperature;BME280_humidity;BME280_pressure;Samples;Min_cycle;Max_cycle;Signal;HPM_P1;HPM_P2
2021/09/24 00:01:12;;;;;;;14.00;1.33;;;;;;;9.21;51.76;101391.78;4969518;28;20104;-71
2021/09/24 00:03:37;;;;;;;18.55;1.77;;;;;;;9.17;51.56;101393.66;4969382;28;20125;-71
2021/09/24 00:06:04;;;;;;;14.88;1.13;;;;;;;9.09;51.93;101387.75;4982100;28;20113;-71
2021/09/24 00:08:30;;;;;;;16.05;0.98;;;;;;;9.08;51.80;101392.13;4984681;28;20034;-71
2021/09/24 00:10:56;;;;;;;17.08;1.98;;;;;;;9.04;51.77;101385.28;4982863;28;20513;-71
2021/09/24 00:13:22;;;;;;;16.35;1.75;;;;;;;8.98;51.99;101396.72;4997366;28;20072;-71
2021/09/24 00:15:48;;;;;;;11.20;2.22;;;;;;;8.91;52.27;101384.72;4984180;28;20108;-71
2021/09/24 00:18:14;;;;;;;16.35;1.60;;;;;;;8.93;51.95;101388.16;4989846;28;20069;-70
2021/09/24 00:20:40;;;;;;;13.40;1.63;;;;;;;8.70;53.40;101385.22;4981929;28;20046;-71
2021/09/24 00:23:05;;;;;;;15.02;2.05;;;;;;;8.92;52.54;101390.81;4984550;28;20029;-70
2021/09/24 00:25:31;;;;;;;12.65;2.15;;;;;;;8.98;52.20;101395.84;4993464;28;20061;-70
2021/09/24 00:27:58;;;;;;;14.98;1.90;;;;;;;9.02;52.47;101387.06;4981745;28;20117;-70
2021/09/24 00:30:24;;;;;;;15.55;1.52;;;;;;;9.02;51.82;101381.84;4980024;28;20396;-70
2021/09/24 00:32:49;;;;;;;9.20;1.50;;;;;;;8.97;51.90;101384.56;4972012;28;20121;-71
2021/09/24 00:35:15;;;;;;;10.95;1.50;;;;;;;8.90;51.70;101382.16;4983961;28;20511;-70
2021/09/24 00:37:40;;;;;;;19.23;0.73;;;;;;;8.84;52.03;101380.56;4982008;28;20066;-70
2021/09/24 00:40:07;;;;;;;16.85;1.23;;;;;;;8.82;51.79;101378.88;4981616;28;20132;-70
2021/09/24 00:42:33;;;;;;;15.18;1.42;;;;;;;8.79;51.91;101378.97;4979135;28;20042;-71
2021/09/24 00:44:58;;;;;;;8.40;1.05;;;;;;;8.81;51.80;101383.25;4980511;28;20038;-71
2021/09/24 00:47:26;;;;;;;15.48;1.25;;;;;;;8.75;52.14;101372.97;4999254;28;20396;-70
2021/09/24 00:49:52;;;;;;;12.95;2.15;;;;;;;8.67;52.49;101375.75;4985561;28;20050;-70
2021/09/24 00:52:19;;;;;;;12.80;1.92;;;;;;;8.70;52.43;101377.41;4996226;28;20022;-71
2021/09/24 00:54:46;;;;;;;13.00;1.10;;;;;;;8.60;52.42;101384.56;4982022;28;20034;-71
2021/09/24 00:57:12;;;;;;;12.95;2.20;;;;;;;8.65;52.32;101381.84;4991573;28;20036;-71
2021/09/24 00:59:37;;;;;;;9.07;1.15;;;;;;;8.67;52.63;101380.06;4981099;28;20602;-71
2021/09/24 01:02:03;;;;;;;8.38;1.10;;;;;;;8.67;52.71;101380.06;4979353;28;20088;-71
2021/09/24 01:04:29;;;;;;;12.80;1.88;;;;;;;8.78;52.48;101380.69;4982985;28;20509;-70
2021/09/24 01:06:54;;;;;;;12.00;1.98;;;;;;;8.70;52.54;101375.66;4979883;28;20046;-71
2021/09/24 01:09:20;;;;;;;11.43;1.20;;;;;;;8.71;52.45;101381.75;4979501;28;20031;-71
2021/09/24 01:11:46;;;;;;;8.48;0.65;;;;;;;8.69;52.27;101380.88;4997763;28;20070;-71
2021/09/24 01:14:12;;;;;;;13.13;0.68;;;;;;;8.77;51.99;101382.47;4984971;28;20509;-70
2021/09/24 01:16:37;;;;;;;15.63;1.90;;;;;;;8.75;52.66;101378.19;4982136;28;20031;-70
2021/09/24 01:19:03;;;;;;;9.57;1.35;;;;;;;8.77;51.98;101381.59;4986947;28;20026;-71
2021/09/24 01:21:30;;;;;;;15.95;1.30;;;;;;;8.77;52.20;101374.63;4980072;28;20127;-71
2021/09/24 01:23:56;;;;;;;10.18;1.10;;;;;;;8.77;51.87;101381.59;4980051;28;20037;-71
2021/09/24 01:26:21;;;;;;;7.85;1.55;;;;;;;8.78;52.47;101383.31;4996091;28;20034;-71
2021/09/24 01:28:47;;;;;;;9.88;1.73;;;;;;;8.79;52.22;101373.75;4985063;28;20061;-71
2021/09/24 01:31:14;;;;;;;15.70;1.15;;;;;;;8.68;52.84;101376.59;4996686;28;20380;-71
2021/09/24 01:33:47;;;;;;;17.27;1.38;;;;;;;8.67;52.93;101378.34;4980141;28;20069;-71
2021/09/24 01:36:12;;;;;;;12.15;1.38;;;;;;;8.65;52.57;101379.25;4978733;28;20041;-71
2021/09/24 01:38:38;;;;;;;17.10;1.13;;;;;;;8.56;53.22;101377.72;4975716;28;20046;-71
2021/09/24 01:41:05;;;;;;;18.63;3.30;;;;;;;8.56;53.43;101373.38;4973229;28;20115;-71
2021/09/24 01:43:33;;;;;;;20.90;2.95;;;;;;;8.63;53.22;101379.31;4984762;28;20042;-73
2021/09/24 01:45:59;;;;;;;8.60;1.52;;;;;;;8.74;52.92;101369.50;5000391;28;20478;-71
2021/09/24 01:48:24;;;;;;;7.63;1.05;;;;;;;8.81;52.96;101372.81;4984795;28;20045;-72
2021/09/24 01:50:50;;;;;;;13.90;1.40;;;;;;;8.82;52.91;101371.06;4978550;28;20143;-71
2021/09/24 01:53:16;;;;;;;10.07;1.63;;;;;;;8.87;53.21;101375.25;4995765;28;20061;-72
2021/09/24 01:55:41;;;;;;;11.38;1.00;;;;;;;8.93;52.97;101367.28;4981366;28;20149;-71
2021/09/24 01:58:07;;;;;;;9.93;1.40;;;;;;;9.00;52.66;101361.94;4997119;28;20675;-70
2021/09/24 02:00:32;;;;;;;20.15;2.25;;;;;;;8.94;52.96;101366.41;4981765;28;20497;-71
2021/09/24 02:02:58;;;;;;;8.05;0.80;;;;;;;8.95;52.86;101357.69;4979107;28;20022;-71
2021/09/24 02:05:24;;;;;;;8.88;1.55;;;;;;;8.94;53.07;101357.72;5000740;28;20125;-71
2021/09/24 02:07:50;;;;;;;11.10;0.93;;;;;;;9.03;53.19;101351.41;4995304;28;20088;-71
2021/09/24 02:10:15;;;;;;;14.13;1.05;;;;;;;9.12;53.39;101356.38;4985231;28;20129;-71
2021/09/24 02:12:41;;;;;;;14.55;1.10;;;;;;;9.05;53.85;101354.84;4980063;28;20062;-71
2021/09/24 02:15:07;;;;;;;5.75;1.08;;;;;;;9.24;53.51;101356.06;4983366;28;20102;-71
2021/09/24 02:17:33;;;;;;;8.55;1.38;;;;;;;9.39;53.11;101354.81;4985553;28;20468;-71
2021/09/24 02:19:58;;;;;;;16.85;1.98;;;;;;;9.46;53.26;101355.50;4994908;28;20037;-72
2021/09/24 02:22:24;;;;;;;13.40;1.90;;;;;;;9.58;52.62;101349.91;4991766;28;20566;-71
2021/09/24 02:24:49;;;;;;;24.33;2.17;;;;;;;9.61;52.37;101352.47;4984209;28;20035;-72
2021/09/24 02:27:15;;;;;;;13.40;2.10;;;;;;;9.59;52.66;101346.44;4976924;28;20097;-71
2021/09/24 02:29:40;;;;;;;12.60;1.02;;;;;;;9.74;52.50;101345.97;4979513;28;20133;-72
2021/09/24 02:32:06;;;;;;;12.50;1.98;;;;;;;9.82;52.32;101342.34;4977359;28;20030;-72
2021/09/24 02:34:32;;;;;;;11.70;1.00;;;;;;;9.89;52.25;101349.06;4982199;28;20046;-72
2021/09/24 02:36:57;;;;;;;16.67;1.70;;;;;;;9.93;52.32;101350.69;4978053;28;20035;-72
2021/09/24 02:39:23;;;;;;;5.53;0.65;;;;;;;10.01;52.01;101351.31;4978892;28;20049;-73
2021/09/24 02:41:49;;;;;;;12.40;2.25;;;;;;;10.01;52.29;101353.91;4980013;28;20608;-71
2021/09/24 02:44:14;;;;;;;12.68;1.15;;;;;;;10.02;52.13;101347.81;4969057;28;20049;-71
2021/09/24 02:46:41;;;;;;;12.18;2.75;;;;;;;10.00;52.89;101345.22;4981033;28;20066;-72
2021/09/24 02:49:07;;;;;;;16.20;1.27;;;;;;;10.09;52.59;101341.50;4981065;28;20018;-72
2021/09/24 02:51:33;;;;;;;13.63;1.52;;;;;;;10.12;52.84;101350.97;4993462;28;20133;-72
2021/09/24 02:53:58;;;;;;;8.63;1.45;;;;;;;10.03;53.16;101362.56;4974543;28;20034;-71
2021/09/24 02:56:24;;;;;;;21.50;2.90;;;;;;;9.94;53.42;101358.47;4988522;28;20166;-71
2021/09/24 02:58:49;;;;;;;13.95;1.90;;;;;;;9.62;54.88;101356.78;4979607;28;20126;-72
2021/09/24 03:01:15;;;;;;;13.85;2.80;;;;;;;10.21;53.64;101348.97;4980389;28;20056;-72
2021/09/24 03:03:40;;;;;;;3.42;1.30;;;;;;;9.87;54.32;101348.25;4977442;28;20069;-74
2021/09/24 03:06:06;;;;;;;16.50;1.65;;;;;;;10.28;53.74;101359.19;4978081;28;20649;-72
2021/09/24 03:08:31;;;;;;;15.75;1.30;;;;;;;10.05;54.62;101354.69;4973071;28;20081;-71
2021/09/24 03:10:57;;;;;;;16.35;1.42;;;;;;;10.38;53.57;101350.19;4976795;28;20585;-71
2021/09/24 03:13:26;;;;;;;12.32;0.80;;;;;;;10.38;53.46;101352.81;4976557;28;20042;-71
2021/09/24 03:15:53;;;;;;;8.75;1.15;;;;;;;10.62;53.08;101349.41;4980686;28;20042;-71
2021/09/24 03:18:19;;;;;;;11.55;1.55;;;;;;;10.64;53.34;101352.81;4959207;28;20042;-71
2021/09/24 03:20:45;;;;;;;20.05;1.45;;;;;;;10.29;54.58;101353.94;4957307;28;20046;-71
2021/09/24 03:23:11;;;;;;;10.43;1.05;;;;;;;10.53;53.80;101362.78;4990635;28;20030;-72
2021/09/24 03:25:36;;;;;;;25.02;2.00;;;;;;;10.57;53.71;101359.16;4992267;28;20062;-72
2021/09/24 03:28:02;;;;;;;13.85;1.63;;;;;;;10.43;54.58;101358.72;4978800;28;20153;-71
2021/09/24 03:30:27;;;;;;;12.73;1.20;;;;;;;10.68;53.99;101350.94;4976082;28;20042;-72
2021/09/24 03:32:53;;;;;;;9.18;1.30;;;;;;;10.71;54.11;101350.84;4976738;28;20031;-71
2021/09/24 03:35:19;;;;;;;10.82;1.48;;;;;;;10.62;54.75;101346.78;4979927;28;20026;-73
2021/09/24 03:37:44;;;;;;;15.60;1.70;;;;;;;10.67;54.79;101351.00;4966667;28;20038;-73
2021/09/24 03:40:11;;;;;;;13.68;1.13;;;;;;;10.76;54.44;101351.56;4977586;28;20030;-72
2021/09/24 03:42:37;;;;;;;11.40;0.85;;;;;;;10.87;54.48;101351.22;4992713;28;20138;-72
2021/09/24 03:45:04;;;;;;;7.45;0.50;;;;;;;10.97;54.21;101342.19;4978127;28;20038;-74
2021/09/24 03:47:29;;;;;;;18.45;1.15;;;;;;;10.88;54.70;101352.94;4980842;28;20535;-72
2021/09/24 03:49:55;;;;;;;12.07;1.00;;;;;;;11.00;54.38;101344.69;4997480;28;20741;-72
2021/09/24 03:52:20;;;;;;;6.78;0.60;;;;;;;11.05;54.58;101344.53;4993366;28;20058;-72
2021/09/24 03:54:46;;;;;;;9.13;0.80;;;;;;;11.04;54.64;101348.91;4980581;28;20046;-71
2021/09/24 03:57:11;;;;;;;7.68;0.77;;;;;;;11.03;54.98;101346.31;4977965;28;20038;-72
2021/09/24 03:59:37;;;;;;;10.77;1.25;;;;;;;11.13;55.23;101349.47;4982382;28;20370;-73
2021/09/24 04:02:02;;;;;;;15.13;1.35;;;;;;;11.12;55.77;101345.16;4981713;28;20063;-71
2021/09/24 04:04:28;;;;;;;9.27;0.47;;;;;;;11.23;55.32;101338.63;4979989;28;20976;-71
2021/09/24 04:06:53;;;;;;;14.43;1.08;;;;;;;11.30;55.51;101344.50;4982969;28;20459;-71
2021/09/24 04:09:19;;;;;;;3.92;0.93;;;;;;;11.25;56.30;101346.44;4969517;28;20026;-73
2021/09/24 04:11:44;;;;;;;14.35;0.90;;;;;;;11.42;55.62;101332.75;4981024;28;20772;-71
2021/09/24 04:14:10;;;;;;;9.00;1.08;;;;;;;11.52;55.55;101333.28;4980492;28;20043;-72
2021/09/24 04:16:36;;;;;;;10.35;1.08;;;;;;;11.25;56.91;101338.59;4982495;28;20065;-72
2021/09/24 04:19:02;;;;;;;5.95;1.38;;;;;;;11.51;56.05;101331.56;4978516;28;20483;-72
2021/09/24 04:21:27;;;;;;;10.23;1.10;;;;;;;11.49;56.90;101325.53;4996408;28;20046;-73
2021/09/24 04:23:53;;;;;;;9.55;0.88;;;;;;;11.28;57.91;101335.00;4980193;28;20077;-71
2021/09/24 04:26:19;;;;;;;4.97;1.13;;;;;;;11.46;57.25;101319.50;4982481;28;20100;-72
2021/09/24 04:28:44;;;;;;;12.13;0.90;;;;;;;10.99;59.37;101332.50;4993872;28;20078;-72
2021/09/24 04:31:10;;;;;;;7.88;1.30;;;;;;;11.23;59.04;101327.31;4984152;28;20292;-71
2021/09/24 04:33:35;;;;;;;8.85;1.00;;;;;;;11.69;57.50;101336.13;4981878;28;20053;-72
2021/09/24 04:36:01;;;;;;;6.80;0.85;;;;;;;11.84;56.89;101330.34;4995051;28;20053;-72
2021/09/24 04:38:26;;;;;;;15.30;1.05;;;;;;;11.76;57.19;101327.13;4982509;28;20131;-71
2021/09/24 04:40:52;;;;;;;12.57;1.33;;;;;;;11.71;57.30;101339.53;4981155;28;20093;-72
2021/09/24 04:43:17;;;;;;;13.18;1.10;;;;;;;11.59;58.38;101338.22;4985948;28;20045;-71
2021/09/24 04:45:43;;;;;;;11.15;0.77;;;;;;;11.78;57.59;101341.03;4979587;28;20053;-71
2021/09/24 04:48:09;;;;;;;4.97;0.47;;;;;;;11.65;57.95;101345.00;4981165;28;20037;-72
2021/09/24 04:50:34;;;;;;;16.90;2.03;;;;;;;11.66;57.94;101346.69;4982485;28;20122;-72
2021/09/24 04:53:00;;;;;;;8.95;0.80;;;;;;;11.44;58.58;101342.25;4992519;28;20054;-73
2021/09/24 04:55:25;;;;;;;8.57;1.50;;;;;;;11.47;59.17;101346.53;4997004;28;20065;-71
2021/09/24 04:57:51;;;;;;;8.68;0.85;;;;;;;11.45;58.84;101346.56;4982897;28;20038;-73
2021/09/24 05:00:17;;;;;;;8.40;1.00;;;;;;;11.64;58.77;101341.53;4996176;28;20145;-71
2021/09/24 05:02:42;;;;;;;6.80;0.85;;;;;;;11.41;59.38;101342.34;4978854;28;20059;-72
2021/09/24 05:05:09;;;;;;;10.02;0.82;;;;;;;11.56;59.22;101346.19;4979022;28;20871;-71
2021/09/24 05:07:36;;;;;;;10.30;1.17;;;;;;;11.71;58.54;101344.78;4980731;28;20030;-71
2021/09/24 05:10:04;;;;;;;11.65;1.63;;;;;;;11.93;57.94;101346.59;4981879;28;20058;-71
2021/09/24 05:12:29;;;;;;;15.32;0.80;;;;;;;11.87;58.19;101350.31;4968182;28;20420;-71
2021/09/24 05:14:55;;;;;;;15.77;0.70;;;;;;;11.70;59.11;101352.69;4984033;28;20030;-72
2021/09/24 05:17:20;;;;;;;13.32;1.00;;;;;;;11.63;59.75;101346.81;4981056;28;20145;-71
2021/09/24 05:19:46;;;;;;;6.93;0.93;;;;;;;11.77;59.29;101347.19;4994422;28;20786;-71
2021/09/24 05:22:11;;;;;;;11.90;1.20;;;;;;;11.26;61.07;101348.13;4980571;28;20125;-72
2021/09/24 05:24:37;;;;;;;16.00;1.67;;;;;;;11.57;60.37;101347.88;4986905;28;20080;-71
2021/09/24 05:27:03;;;;;;;15.18;1.40;;;;;;;11.75;59.73;101351.59;4981282;28;20050;-71
2021/09/24 05:29:28;;;;;;;7.78;1.23;;;;;;;11.81;59.38;101354.00;4978564;28;20042;-70
2021/09/24 05:31:55;;;;;;;4.07;0.90;;;;;;;12.11;58.61;101353.78;4977024;28;20030;-70
2021/09/24 05:34:22;;;;;;;10.57;1.02;;;;;;;12.00;59.20;101345.44;4994370;28;20513;-71
2021/09/24 05:36:48;;;;;;;7.00;0.85;;;;;;;12.06;59.00;101345.22;4994479;28;20053;-71
2021/09/24 05:39:13;;;;;;;12.15;1.42;;;;;;;11.91;59.26;101337.94;4969325;28;20069;-72
2021/09/24 05:41:39;;;;;;;6.30;1.30;;;;;;;11.67;60.14;101341.41;4967430;28;20065;-71
2021/09/24 05:44:05;;;;;;;19.33;1.58;;;;;;;11.39;60.71;101341.56;4976703;28;20066;-71
2021/09/24 05:46:31;;;;;;;8.73;1.27;;;;;;;11.88;60.07;101341.53;4973741;28;20041;-71
2021/09/24 05:48:56;;;;;;;14.15;2.20;;;;;;;12.01;59.07;101342.78;4979202;28;20030;-71
2021/09/24 05:51:22;;;;;;;13.38;1.98;;;;;;;12.11;59.05;101339.78;4977582;28;20532;-71
2021/09/24 05:53:47;;;;;;;12.05;1.85;;;;;;;12.18;59.19;101339.50;4995431;28;20030;-70
2021/09/24 05:56:13;;;;;;;15.60;1.75;;;;;;;12.16;58.93;101338.72;4976139;28;20080;-71
2021/09/24 05:58:39;;;;;;;12.80;2.40;;;;;;;12.04;59.29;101336.56;4983003;28;20628;-70
2021/09/24 06:01:04;;;;;;;9.70;2.30;;;;;;;11.87;59.83;101335.47;4980749;28;20039;-71
2021/09/24 06:03:30;;;;;;;18.63;1.60;;;;;;;11.92;59.67;101323.94;4998293;28;20125;-71
2021/09/24 06:05:55;;;;;;;10.32;0.90;;;;;;;12.13;58.89;101336.19;4978173;28;20542;-71
2021/09/24 06:08:21;;;;;;;13.18;1.58;;;;;;;12.26;58.55;101329.56;4995969;28;20039;-71
2021/09/24 06:10:46;;;;;;;10.55;1.38;;;;;;;12.35;58.70;101324.88;4978684;28;20043;-71
2021/09/24 06:13:12;;;;;;;11.15;1.40;;;;;;;12.29;58.74;101326.00;4981631;28;20623;-71
2021/09/24 06:15:38;;;;;;;4.80;0.65;;;;;;;12.48;58.06;101315.59;4978740;28;20170;-71
2021/09/24 06:18:06;;;;;;;7.18;0.93;;;;;;;12.28;58.95;101314.63;4998281;28;20041;-70
2021/09/24 06:20:32;;;;;;;7.32;1.10;;;;;;;12.39;58.46;101316.81;4977457;28;20054;-71
2021/09/24 06:22:57;;;;;;;12.27;1.15;;;;;;;12.14;59.71;101316.13;4975610;28;20034;-72
2021/09/24 06:25:23;;;;;;;14.73;1.58;;;;;;;12.55;58.65;101322.28;4977016;28;20034;-72
2021/09/24 06:27:49;;;;;;;9.43;2.08;;;;;;;12.47;58.59;101325.25;4979204;28;20042;-70
2021/09/24 06:30:19;;;;;;;10.70;1.25;;;;;;;12.53;58.49;101323.28;4979778;28;20575;-70
2021/09/24 06:32:45;;;;;;;8.50;0.75;;;;;;;12.82;58.10;101325.56;4978881;28;20125;-72
2021/09/24 06:35:12;;;;;;;8.80;1.40;;;;;;;12.61;58.73;101326.44;4979359;28;20520;-71
2021/09/24 06:37:38;;;;;;;8.50;1.30;;;;;;;12.74;58.66;101314.56;4978942;28;20027;-72
2021/09/24 06:40:05;;;;;;;11.13;1.00;;;;;;;12.54;59.47;101323.22;4977743;28;20046;-70
2021/09/24 06:42:32;;;;;;;6.90;1.58;;;;;;;12.73;59.33;101319.84;4978281;28;20055;-70
2021/09/24 06:44:58;;;;;;;8.57;1.27;;;;;;;12.42;59.98;101319.34;4977394;28;20100;-72
2021/09/24 06:47:26;;;;;;;12.90;1.58;;;;;;;12.08;61.06;101312.81;4980769;28;20039;-70
2021/09/24 06:49:52;;;;;;;12.20;2.55;;;;;;;12.12;61.43;101324.03;4981146;28;20066;-71
2021/09/24 06:52:19;;;;;;;11.13;1.33;;;;;;;12.32;60.65;101330.25;4980695;28;20121;-70
2021/09/24 06:54:45;;;;;;;9.18;1.38;;;;;;;12.63;59.71;101314.97;4980687;28;20042;-71
2021/09/24 06:57:11;;;;;;;9.40;1.13;;;;;;;12.20;61.32;101318.47;4978422;28;20046;-69
2021/09/24 06:59:36;;;;;;;6.90;1.23;;;;;;;12.38;60.60;101317.75;4976438;28;20053;-72
2021/09/24 07:02:02;;;;;;;8.65;1.50;;;;;;;12.09;61.71;101324.16;4977653;28;20038;-71
2021/09/24 07:04:27;;;;;;;6.53;0.85;;;;;;;12.05;62.44;101319.94;4993094;28;20100;-72
2021/09/24 07:06:53;;;;;;;4.07;0.75;;;;;;;12.37;61.06;101328.28;4977456;28;20126;-72
2021/09/24 07:09:18;;;;;;;7.30;1.45;;;;;;;12.45;60.92;101321.81;4969054;28;20037;-71
2021/09/24 07:11:48;;;;;;;6.00;0.60;;;;;;;12.68;60.03;101318.25;4977366;28;20138;-70
2021/09/24 07:14:15;;;;;;;4.38;1.25;;;;;;;12.84;59.38;101313.22;4986420;28;20034;-70
2021/09/24 07:16:41;;;;;;;2.90;0.68;;;;;;;13.22;58.38;101309.88;4982075;28;20041;-72
2021/09/24 07:19:07;;;;;;;5.63;0.70;;;;;;;13.09;58.14;101310.44;4984927;28;20032;-71
2021/09/24 07:21:33;;;;;;;6.65;1.00;;;;;;;12.96;58.98;101313.63;4983424;28;20042;-72
2021/09/24 07:23:59;;;;;;;9.25;1.27;;;;;;;13.16;58.27;101310.13;4982211;28;20045;-71
2021/09/24 07:26:27;;;;;;;4.43;0.80;;;;;;;12.77;59.75;101303.06;4982820;28;20039;-72
2021/09/24 07:28:53;;;;;;;9.27;1.08;;;;;;;12.58;60.19;101309.06;4980415;28;20034;-69
2021/09/24 07:31:19;;;;;;;5.25;0.77;;;;;;;12.97;59.41;101318.81;4981154;28;20043;-70
2021/09/24 07:33:44;;;;;;;5.68;1.05;;;;;;;12.96;59.02;101317.13;4982304;28;20790;-71
2021/09/24 07:36:11;;;;;;;7.93;1.30;;;;;;;13.35;58.19;101313.66;4986703;28;20477;-71
2021/09/24 07:38:37;;;;;;;4.93;1.17;;;;;;;13.31;58.64;101314.72;4981584;28;20035;-71
2021/09/24 07:41:03;;;;;;;2.92;0.68;;;;;;;13.62;57.76;101311.56;4981404;28;20049;-71
2021/09/24 07:43:28;;;;;;;5.53;0.73;;;;;;;14.07;56.50;101306.88;4983380;28;20034;-71
2021/09/24 07:45:56;;;;;;;4.10;0.60;;;;;;;13.78;56.90;101295.97;4984162;28;20061;-73
2021/09/24 07:48:22;;;;;;;5.22;1.15;;;;;;;13.43;57.91;101287.91;4983665;28;20046;-71
2021/09/24 07:50:47;;;;;;;8.32;1.67;;;;;;;14.28;56.11;101294.47;4985501;28;20031;-73
2021/09/24 07:53:13;;;;;;;4.72;1.50;;;;;;;14.11;56.17;101287.41;4982021;28;20045;-71
2021/09/24 07:55:38;;;;;;;5.80;1.02;;;;;;;14.77;54.38;101292.91;4991528;28;20042;-72
2021/09/24 07:58:04;;;;;;;3.78;1.60;;;;;;;13.29;58.18;101287.66;4996686;28;20080;-71
2021/09/24 08:00:30;;;;;;;5.57;2.00;;;;;;;14.05;56.76;101298.19;4968998;28;20034;-71
2021/09/24 08:02:56;;;;;;;8.65;1.92;;;;;;;14.26;56.20;101297.16;4971959;28;20130;-70
2021/09/24 08:05:22;;;;;;;7.00;2.22;;;;;;;14.26;55.87;101293.69;5005081;28;20042;-73
2021/09/24 08:07:48;;;;;;;9.45;3.15;;;;;;;13.67;57.58;101298.22;4983831;28;20041;-71
2021/09/24 08:10:13;;;;;;;9.57;3.00;;;;;;;13.93;56.76;101289.97;4971578;28;20038;-71
2021/09/24 08:12:39;;;;;;;8.93;2.92;;;;;;;14.03;56.74;101290.41;4981252;28;20092;-69
2021/09/24 08:15:07;;;;;;;12.70;2.72;;;;;;;14.20;56.31;101289.56;4997239;28;20455;-70
2021/09/24 08:17:32;;;;;;;7.85;2.30;;;;;;;14.12;56.48;101294.34;4979931;28;20055;-71
2021/09/24 08:19:58;;;;;;;8.65;2.13;;;;;;;13.83;56.82;101288.72;4985218;28;20506;-71
2021/09/24 08:22:24;;;;;;;16.98;3.30;;;;;;;13.57;57.61;101299.59;4984072;28;20026;-71
2021/09/24 08:24:50;;;;;;;10.60;1.98;;;;;;;14.16;56.81;101288.03;4978650;28;20046;-71
2021/09/24 08:27:16;;;;;;;9.63;2.90;;;;;;;14.48;56.08;101275.97;4990617;28;20033;-71
2021/09/24 08:29:41;;;;;;;13.60;2.65;;;;;;;14.59;55.68;101288.56;4974898;28;20038;-71
2021/09/24 08:32:07;;;;;;;10.40;2.20;;;;;;;14.55;55.38;101284.41;4979691;28;20062;-72
2021/09/24 08:34:33;;;;;;;7.13;1.80;;;;;;;13.84;57.97;101293.03;4980287;28;20173;-71
2021/09/24 08:36:59;;;;;;;17.00;2.67;;;;;;;14.24;57.04;101280.63;4985562;28;20157;-70
2021/09/24 08:39:24;;;;;;;8.38;1.50;;;;;;;14.44;56.81;101290.19;4984941;28;20449;-70
2021/09/24 08:41:50;;;;;;;11.02;2.45;;;;;;;14.13;57.21;101275.03;4980592;28;20524;-70
2021/09/24 08:44:16;;;;;;;10.98;2.25;;;;;;;14.35;56.47;101280.94;4984352;28;20062;-69
2021/09/24 08:46:41;;;;;;;14.60;3.60;;;;;;;14.16;56.94;101285.38;4977394;28;20046;-70
2021/09/24 08:49:07;;;;;;;12.57;2.72;;;;;;;14.07;57.29;101283.22;4996473;28;20037;-70
2021/09/24 08:51:34;;;;;;;18.23;3.42;;;;;;;14.16;57.40;101282.75;4981696;28;20031;-69
2021/09/24 08:54:02;;;;;;;13.05;3.25;;;;;;;14.47;56.41;101284.75;4983036;28;20026;-70
2021/09/24 08:56:27;;;;;;;14.52;3.10;;;;;;;;;;4994063;28;20046;-70
2021/09/24 08:58:53;;;;;;;10.88;3.00;;;;;;;15.22;54.22;101281.88;4981028;28;20038;-70
2021/09/24 09:01:18;;;;;;;15.63;2.25;;;;;;;15.72;53.79;101280.88;4978949;28;20042;-70
2021/09/24 09:03:47;;;;;;;7.55;2.30;;;;;;;15.70;52.75;101280.13;4981037;28;20158;-70
2021/09/24 09:06:16;;;;;;;10.73;2.67;;;;;;;15.12;54.01;101277.03;4979815;28;20037;-70
2021/09/24 09:08:42;;;;;;;7.20;1.73;;;;;;;15.58;53.55;101273.75;4995268;28;20081;-70
2021/09/24 09:11:20;;;;;;;12.85;2.53;;;;;;;15.74;52.59;101273.75;4997165;28;20118;-70
2021/09/24 09:13:53;;;;;;;13.73;2.95;;;;;;;16.04;52.20;101278.25;4978989;28;20595;-71
2021/09/24 09:16:28;;;;;;;8.77;2.67;;;;;;;14.85;54.38;101273.22;4979283;28;20038;-71
2021/09/24 09:19:23;;;;;;;14.43;2.38;;;;;;;15.05;53.51;101265.13;4992465;28;21065;-70
2021/09/24 09:21:49;;;;;;;7.40;2.55;;;;;;;15.86;51.81;101280.13;4977891;28;20057;-70
2021/09/24 09:24:20;;;;;;;10.73;2.28;;;;;;;15.92;51.34;101267.44;4994062;28;20030;-70
2021/09/24 09:26:46;;;;;;;13.00;1.83;;;;;;;16.76;49.47;101272.31;4980272;28;20130;-70
2021/09/24 09:29:12;;;;;;;9.13;1.70;;;;;;;17.82;47.19;101272.81;4984011;28;20642;-71
2021/09/24 09:31:39;;;;;;;14.18;2.03;;;;;;;16.57;48.29;101274.31;4980831;28;20035;-71
2021/09/24 09:34:11;;;;;;;17.45;2.00;;;;;;;17.06;48.24;101273.19;4979408;28;20038;-70
2021/09/24 09:36:42;;;;;;;14.57;2.20;;;;;;;17.61;46.99;101275.06;4993874;28;20046;-70
2021/09/24 09:39:10;;;;;;;10.52;1.98;;;;;;;18.12;45.93;101275.28;4987007;28;20041;-70
2021/09/24 09:41:47;;;;;;;5.43;1.42;;;;;;;17.10;47.44;101278.19;4977188;28;20434;-70
2021/09/24 09:44:27;;;;;;;10.20;3.10;;;;;;;17.64;46.97;101283.63;4992306;28;20095;-71
2021/09/24 09:46:53;;;;;;;10.07;1.92;;;;;;;16.49;49.15;101268.63;4983332;28;20034;-72
2021/09/24 09:49:19;;;;;;;8.32;1.95;;;;;;;16.88;47.44;101270.72;4980098;28;20022;-70
2021/09/24 09:51:47;;;;;;;9.63;2.13;;;;;;;17.15;47.38;101265.53;4981341;28;20045;-70
2021/09/24 09:54:28;;;;;;;9.27;2.08;;;;;;;17.39;47.43;101262.31;4988002;28;20106;-70
2021/09/24 09:57:08;;;;;;;10.23;2.50;;;;;;;16.91;47.64;101260.00;4994527;28;20046;-74
2021/09/24 09:59:34;;;;;;;9.70;2.63;;;;;;;17.29;47.03;101259.41;4999511;28;20346;-73
2021/09/24 10:02:20;;;;;;;11.05;3.10;;;;;;;17.03;47.33;101261.03;4982872;28;20042;-71
2021/09/24 10:04:52;;;;;;;8.80;2.03;;;;;;;17.04;47.50;101262.69;4978928;28;20630;-70
2021/09/24 10:07:28;;;;;;;9.05;2.03;;;;;;;17.08;47.40;101255.47;4982737;28;20034;-72
2021/09/24 10:10:14;;;;;;;8.70;1.70;;;;;;;16.53;48.74;101256.94;4999593;28;20046;-73
2021/09/24 10:12:41;;;;;;;3.97;1.48;;;;;;;16.87;47.60;101258.47;4981589;28;20775;-71
2021/09/24 10:15:08;;;;;;;11.80;2.58;;;;;;;16.37;48.67;101262.28;4970500;28;20046;-71
2021/09/24 10:17:35;;;;;;;9.30;1.98;;;;;;;16.30;49.17;101266.22;4984523;28;20026;-72
2021/09/24 10:20:01;;;;;;;10.00;1.75;;;;;;;16.94;48.06;101262.44;4991047;28;20120;-70
2021/09/24 10:22:27;;;;;;;11.57;2.42;;;;;;;16.62;48.82;101259.03;4987742;28;20505;-72
2021/09/24 10:24:54;;;;;;;4.43;1.92;;;;;;;15.94;50.51;101270.84;4996144;28;20109;-71
2021/09/24 10:27:27;;;;;;;8.35;2.53;;;;;;;16.34;49.50;101268.59;4981829;28;20035;-70
2021/09/24 10:29:56;;;;;;;11.25;2.47;;;;;;;16.69;48.52;101265.69;4985200;28;20045;-71
2021/09/24 10:32:27;;;;;;;10.57;2.40;;;;;;;17.23;47.19;101260.63;4980887;28;20555;-71
2021/09/24 10:35:04;;;;;;;8.95;2.60;;;;;;;17.21;47.52;101269.59;4980276;28;20497;-71
2021/09/24 10:37:32;;;;;;;7.60;2.60;;;;;;;16.72;48.45;101268.13;4987391;28;20083;-71
2021/09/24 10:40:00;;;;;;;8.10;3.05;;;;;;;16.18;49.81;101263.34;4976394;28;20046;-73
2021/09/24 10:42:33;;;;;;;8.15;3.58;;;;;;;16.47;49.06;101255.53;4996822;28;20041;-71
2021/09/24 10:45:18;;;;;;;7.97;3.08;;;;;;;16.68;48.67;101247.28;4976517;28;20429;-72
2021/09/24 10:47:53;;;;;;;5.93;3.33;;;;;;;16.20;49.97;101263.28;4979150;28;20536;-73
2021/09/24 10:50:34;;;;;;;10.40;3.80;;;;;;;16.83;49.12;101247.22;4977209;28;20092;-71
2021/09/24 10:53:16;;;;;;;11.00;3.35;;;;;;;16.28;49.80;101247.84;4990317;28;20497;-72
2021/09/24 10:56:07;;;;;;;7.70;3.20;;;;;;;16.67;48.91;101243.81;4975736;28;20157;-71
2021/09/24 10:58:38;;;;;;;8.18;2.53;;;;;;;16.97;48.38;101248.19;4976922;28;20038;-72
2021/09/24 11:01:27;;;;;;;11.27;3.80;;;;;;;16.16;50.31;101243.28;4966837;28;20034;-72
2021/09/24 11:04:12;;;;;;;11.60;2.95;;;;;;;16.46;49.54;101245.91;4978330;28;20122;-70
2021/09/24 11:06:50;;;;;;;6.57;2.92;;;;;;;16.18;49.74;101249.34;4993264;28;20071;-72
2021/09/24 11:09:22;;;;;;;8.90;2.83;;;;;;;16.54;49.40;101243.69;4974382;28;20031;-70
2021/09/24 11:12:01;;;;;;;6.47;3.47;;;;;;;16.72;49.00;101246.16;4990244;28;20081;-71
2021/09/24 11:14:26;;;;;;;9.85;4.30;;;;;;;16.58;49.51;101241.72;4976780;28;20041;-70
2021/09/24 11:16:53;;;;;;;7.68;3.92;;;;;;;16.78;49.00;101246.69;4972407;28;20062;-71
2021/09/24 11:19:31;;;;;;;11.05;4.00;;;;;;;16.67;49.18;101253.50;4976172;28;20443;-71
2021/09/24 11:21:59;;;;;;;14.68;4.72;;;;;;;17.06;48.57;101244.97;4987015;28;20035;-72
2021/09/24 11:24:39;;;;;;;8.98;3.58;;;;;;;16.60;48.98;101247.75;4968491;28;20034;-71